createdAt,value
2023-05-19T00:01:30.163Z,10.41
2023-05-19T00:04:02.791Z,10.38
2023-05-19T00:06:33.399Z,10.36
2023-05-19T00:09:04.950Z,10.41
2023-05-19T00:11:33.506Z,10.49
2023-05-19T00:14:01.268Z,10.41
2023-05-19T00:16:30.917Z,10.40
2023-05-19T00:19:00.317Z,10.47
2023-05-19T00:21:29.532Z,10.46
2023-05-19T00:23:57.978Z,10.57
2023-05-19T00:26:27.808Z,10.57
2023-05-19T00:28:55.631Z,10.65
2023-05-19T00:31:29.638Z,10.62
2023-05-19T00:33:57.258Z,10.65
2023-05-19T00:36:25.287Z,10.59
2023-05-19T00:38:52.870Z,10.55
2023-05-19T00:41:21.415Z,10.54
2023-05-19T00:43:49.588Z,10.58
2023-05-19T00:46:18.612Z,10.52
2023-05-19T00:48:46.188Z,10.52
2023-05-19T00:51:17.250Z,10.57
2023-05-19T00:53:49.484Z,10.58
2023-05-19T00:56:18.501Z,10.62
2023-05-19T00:58:46.121Z,10.64
2023-05-19T01:01:17.422Z,10.63
2023-05-19T01:03:45.433Z,10.74
2023-05-19T01:06:13.212Z,10.72
2023-05-19T01:08:40.787Z,10.78
2023-05-19T01:11:08.882Z,10.77
2023-05-19T01:13:38.184Z,10.77
2023-05-19T01:16:40.363Z,10.82
2023-05-19T01:20:02.262Z,10.72
2023-05-19T01:23:15.299Z,10.71
2023-05-19T01:26:16.316Z,10.59
2023-05-19T01:29:17.250Z,10.49
2023-05-19T01:31:48.135Z,10.49
2023-05-19T01:34:18.623Z,10.54
2023-05-19T01:36:50.004Z,10.52
2023-05-19T01:39:18.799Z,10.60
2023-05-19T01:41:47.554Z,10.46
2023-05-19T01:44:16.357Z,10.61
2023-05-19T01:46:43.979Z,10.56
2023-05-19T01:49:12.012Z,10.44
2023-05-19T01:51:40.840Z,10.44
2023-05-19T01:54:08.505Z,10.37
2023-05-19T01:56:52.034Z,10.38
2023-05-19T01:59:43.236Z,10.34
2023-05-19T02:03:01.329Z,10.19
2023-05-19T02:05:55.742Z,10.27
2023-05-19T02:08:50.375Z,10.25
2023-05-19T02:11:54.657Z,10.26
2023-05-19T02:15:05.053Z,10.38
2023-05-19T02:17:38.483Z,10.39
2023-05-19T02:20:07.440Z,10.29
2023-05-19T02:22:36.078Z,10.31
2023-05-19T02:25:03.675Z,10.38
2023-05-19T02:27:31.446Z,10.34
2023-05-19T02:29:58.901Z,10.57
2023-05-19T02:32:26.579Z,10.55
2023-05-19T02:34:56.618Z,10.57
2023-05-19T02:37:25.378Z,10.59
2023-05-19T02:39:52.645Z,10.46
2023-05-19T02:42:20.623Z,10.51
2023-05-19T02:44:48.503Z,10.45
2023-05-19T02:47:16.205Z,10.38
2023-05-19T02:49:44.292Z,10.48
2023-05-19T02:52:12.434Z,10.55
2023-05-19T02:54:39.777Z,10.57
2023-05-19T02:57:07.508Z,10.63
2023-05-19T02:59:34.961Z,10.69
2023-05-19T03:02:03.128Z,10.65
2023-05-19T03:04:30.665Z,10.64
2023-05-19T03:06:58.309Z,10.59
2023-05-19T03:09:25.786Z,10.59
2023-05-19T03:11:53.345Z,10.45
2023-05-19T03:14:24.136Z,10.55
2023-05-19T03:16:52.429Z,10.73
2023-05-19T03:19:20.023Z,10.77
2023-05-19T03:21:49.732Z,10.88
2023-05-19T03:24:17.802Z,10.90
2023-05-19T03:26:46.033Z,10.94
2023-05-19T03:29:13.386Z,10.96
2023-05-19T03:31:41.001Z,11.04
2023-05-19T03:34:08.372Z,11.06
2023-05-19T03:36:39.930Z,11.07
2023-05-19T03:39:07.435Z,11.12
2023-05-19T03:41:35.044Z,11.09
2023-05-19T03:44:02.374Z,11.12
2023-05-19T03:46:30.016Z,11.19
2023-05-19T03:48:57.360Z,11.19
2023-05-19T03:51:25.034Z,11.28
2023-05-19T03:53:52.759Z,11.25
2023-05-19T03:56:23.201Z,11.26
2023-05-19T03:58:50.667Z,11.37
2023-05-19T04:01:18.337Z,11.43
2023-05-19T04:03:45.778Z,11.38
2023-05-19T04:06:13.484Z,11.45
2023-05-19T04:08:40.922Z,11.47
2023-05-19T04:11:08.586Z,11.43
2023-05-19T04:13:35.988Z,11.36
2023-05-19T04:16:03.827Z,11.57
2023-05-19T04:18:31.605Z,11.59
2023-05-19T04:20:59.173Z,11.61
2023-05-19T04:23:26.556Z,11.46
2023-05-19T04:25:54.991Z,11.63
2023-05-19T04:28:24.014Z,11.60
2023-05-19T04:30:51.864Z,11.61
2023-05-19T04:33:20.260Z,11.76
2023-05-19T04:35:47.939Z,11.82
2023-05-19T04:38:19.010Z,11.72
2023-05-19T04:40:50.421Z,11.80
2023-05-19T04:43:19.442Z,11.82
2023-05-19T04:45:50.304Z,11.84
2023-05-19T04:48:17.679Z,11.89
2023-05-19T04:50:45.462Z,11.88
2023-05-19T04:53:12.762Z,11.87
2023-05-19T04:55:40.523Z,11.91
2023-05-19T04:58:08.106Z,12.06
2023-05-19T05:00:37.545Z,12.08
2023-05-19T05:03:08.116Z,12.09
2023-05-19T05:05:36.220Z,12.12
2023-05-19T05:08:03.711Z,12.12
2023-05-19T05:10:31.484Z,12.17
2023-05-19T05:13:00.877Z,12.23
2023-05-19T05:15:29.978Z,12.27
2023-05-19T05:17:58.106Z,12.18
2023-05-19T05:20:26.742Z,12.20
2023-05-19T05:22:54.578Z,12.30
2023-05-19T05:25:22.705Z,12.18
2023-05-19T05:27:50.150Z,12.22
2023-05-19T05:30:17.775Z,12.44
2023-05-19T05:32:45.292Z,12.57
2023-05-19T05:35:13.362Z,12.70
2023-05-19T05:37:40.670Z,12.79
2023-05-19T05:40:09.260Z,12.81
2023-05-19T05:42:36.617Z,12.73
2023-05-19T05:45:04.701Z,12.57
2023-05-19T05:47:32.480Z,12.81
2023-05-19T05:50:00.505Z,12.84
2023-05-19T05:52:32.320Z,12.73
2023-05-19T05:55:00.391Z,12.84
2023-05-19T05:57:30.648Z,12.77
2023-05-19T05:59:58.505Z,12.84
2023-05-19T06:02:26.297Z,12.85
2023-05-19T06:04:54.366Z,12.84
2023-05-19T06:07:21.939Z,12.84
2023-05-19T06:09:49.564Z,12.97
2023-05-19T06:12:16.946Z,12.92
2023-05-19T06:14:44.519Z,13.06
2023-05-19T06:17:11.827Z,12.99
2023-05-19T06:19:39.351Z,12.92
2023-05-19T06:22:06.833Z,13.10
2023-05-19T06:24:34.464Z,13.10
2023-05-19T06:27:01.783Z,13.23
2023-05-19T06:29:29.580Z,13.30
2023-05-19T06:31:57.134Z,13.38
2023-05-19T06:34:24.848Z,13.54
2023-05-19T06:36:52.187Z,13.39
2023-05-19T06:39:19.815Z,13.36
2023-05-19T06:41:47.174Z,13.42
2023-05-19T06:44:14.801Z,13.56
2023-05-19T06:46:42.209Z,13.50
2023-05-19T06:49:11.539Z,13.39
2023-05-19T06:51:38.883Z,13.47
2023-05-19T06:54:06.538Z,13.55
2023-05-19T06:56:33.819Z,13.55
2023-05-19T06:59:01.511Z,13.44
2023-05-19T07:01:30.342Z,13.58
2023-05-19T07:03:58.153Z,13.54
2023-05-19T07:06:25.604Z,13.68
2023-05-19T07:08:53.366Z,13.72
2023-05-19T07:11:21.750Z,13.77
2023-05-19T07:13:49.371Z,13.80
2023-05-19T07:16:16.730Z,13.72
2023-05-19T07:18:44.650Z,13.97
2023-05-19T07:21:11.963Z,13.94
2023-05-19T07:23:39.626Z,13.88
2023-05-19T07:26:07.075Z,13.98
2023-05-19T07:28:34.889Z,14.15
2023-05-19T07:31:02.592Z,14.24
2023-05-19T07:33:30.101Z,14.24
2023-05-19T07:35:57.424Z,14.30
2023-05-19T07:38:25.314Z,14.43
2023-05-19T07:40:52.790Z,14.48
2023-05-19T07:43:20.374Z,14.10
2023-05-19T07:45:47.732Z,14.16
2023-05-19T07:48:15.525Z,14.42
2023-05-19T07:50:43.080Z,14.56
2023-05-19T07:53:10.748Z,14.37
2023-05-19T07:55:38.034Z,14.32
2023-05-19T07:58:06.048Z,14.50
2023-05-19T08:00:33.502Z,14.37
2023-05-19T08:03:02.421Z,14.36
2023-05-19T08:05:30.103Z,14.41
2023-05-19T08:07:57.785Z,14.45
2023-05-19T08:10:25.151Z,14.62
2023-05-19T08:12:52.869Z,14.40
2023-05-19T08:15:21.049Z,14.17
2023-05-19T08:17:48.759Z,14.25
2023-05-19T08:20:16.229Z,14.40
2023-05-19T08:22:43.840Z,14.36
2023-05-19T08:25:11.813Z,14.39
2023-05-19T08:27:39.451Z,14.47
2023-05-19T08:30:08.216Z,14.43
2023-05-19T08:32:36.487Z,14.45
2023-05-19T08:35:04.380Z,14.42
2023-05-19T08:37:34.014Z,14.45
2023-05-19T08:40:01.532Z,14.47
2023-05-19T08:42:29.412Z,14.56
2023-05-19T08:44:56.895Z,14.58
2023-05-19T08:47:26.165Z,14.73
2023-05-19T08:50:03.878Z,14.93
2023-05-19T08:52:58.369Z,15.15
2023-05-19T08:55:41.356Z,15.22
2023-05-19T08:58:10.881Z,15.43
2023-05-19T09:00:39.187Z,15.57
2023-05-19T09:05:39.742Z,15.85
2023-05-19T09:08:07.886Z,15.84
2023-05-19T09:10:35.262Z,15.89
2023-05-19T09:13:02.953Z,15.80
2023-05-19T09:15:32.928Z,16.01
2023-05-19T09:18:19.033Z,15.92
2023-05-19T09:20:47.501Z,15.93
2023-05-19T09:23:17.316Z,15.95
2023-05-19T09:25:52.289Z,15.99
2023-05-19T09:28:30.581Z,15.79
2023-05-19T09:31:02.186Z,16.03
2023-05-19T09:33:31.654Z,15.87
2023-05-19T09:35:59.238Z,15.87
2023-05-19T09:38:28.444Z,15.86
2023-05-19T09:41:00.952Z,15.94
2023-05-19T09:43:36.652Z,16.02
2023-05-19T09:46:10.526Z,16.03
2023-05-19T09:48:40.445Z,16.10
2023-05-19T09:51:11.215Z,16.09
2023-05-19T09:53:39.552Z,16.28
2023-05-19T09:56:10.396Z,16.41
2023-05-19T09:58:42.243Z,16.48
2023-05-19T10:01:09.909Z,16.40
2023-05-19T10:03:39.386Z,16.66
2023-05-19T10:06:09.336Z,16.80
2023-05-19T10:08:39.919Z,16.68
2023-05-19T10:11:08.371Z,16.89
2023-05-19T10:13:39.457Z,17.10
2023-05-19T10:16:09.599Z,17.27
2023-05-19T10:18:40.190Z,17.20
2023-05-19T10:21:09.737Z,17.37
2023-05-19T10:23:37.680Z,17.25
2023-05-19T10:26:07.600Z,17.47
2023-05-19T10:28:43.101Z,17.30
2023-05-19T10:31:18.698Z,17.33
2023-05-19T10:34:22.383Z,17.16
2023-05-19T10:37:21.819Z,17.05
2023-05-19T10:39:52.671Z,17.02
2023-05-19T10:42:38.298Z,17.31
2023-05-19T10:45:24.204Z,17.34
2023-05-19T10:47:51.982Z,17.40
2023-05-19T10:50:21.064Z,17.41
2023-05-19T10:52:55.952Z,17.35
2023-05-19T10:55:48.072Z,17.36
2023-05-19T10:58:15.750Z,17.00
2023-05-19T11:00:43.775Z,17.36
2023-05-19T11:03:17.900Z,17.55
2023-05-19T11:05:46.556Z,17.65
2023-05-19T11:08:14.258Z,17.93
2023-05-19T11:10:46.397Z,18.11
2023-05-19T11:13:28.413Z,18.11
2023-05-19T11:15:56.743Z,18.36
2023-05-19T11:18:24.853Z,18.43
2023-05-19T11:21:02.677Z,18.03
2023-05-19T11:23:35.508Z,17.95
2023-05-19T11:26:03.516Z,17.80
2023-05-19T11:28:31.451Z,17.86
2023-05-19T11:31:02.322Z,18.01
2023-05-19T11:33:32.819Z,17.97
2023-05-19T11:36:00.741Z,18.09
2023-05-19T11:38:30.409Z,18.00
2023-05-19T11:40:58.270Z,18.01
2023-05-19T11:43:26.341Z,18.01
2023-05-19T11:45:55.265Z,17.93
2023-05-19T11:48:23.451Z,18.47
2023-05-19T11:50:51.424Z,18.64
2023-05-19T11:53:19.973Z,18.67
2023-05-19T11:55:49.011Z,18.76
2023-05-19T11:58:17.395Z,18.89
2023-05-19T12:00:49.072Z,18.87
2023-05-19T12:03:21.906Z,18.87
2023-05-19T12:05:50.365Z,18.87
2023-05-19T12:08:21.776Z,19.09
2023-05-19T12:10:50.950Z,19.14
2023-05-19T12:13:19.452Z,19.18
2023-05-19T12:15:47.332Z,19.29
2023-05-19T12:18:14.791Z,18.94
2023-05-19T12:20:43.218Z,19.30
2023-05-19T12:23:10.949Z,19.45
2023-05-19T12:25:38.802Z,19.23
2023-05-19T12:28:07.414Z,18.93
2023-05-19T12:30:35.570Z,18.85
2023-05-19T12:33:03.679Z,19.06
2023-05-19T12:35:34.237Z,19.11
2023-05-19T12:38:07.002Z,18.85
2023-05-19T12:40:37.709Z,18.77
2023-05-19T12:43:07.059Z,18.71
2023-05-19T12:45:39.972Z,18.66
2023-05-19T12:48:12.706Z,18.70
2023-05-19T12:50:40.726Z,18.84
2023-05-19T12:53:15.431Z,18.73
2023-05-19T12:55:45.633Z,18.93
2023-05-19T12:58:15.954Z,18.89
2023-05-19T13:00:48.624Z,18.95
2023-05-19T13:03:19.710Z,19.05
2023-05-19T13:05:51.021Z,19.04
2023-05-19T13:08:24.166Z,18.93
2023-05-19T13:10:52.099Z,18.80
2023-05-19T13:13:19.580Z,18.81
2023-05-19T13:15:49.230Z,18.90
2023-05-19T13:18:17.732Z,18.73
2023-05-19T13:20:47.440Z,18.82
2023-05-19T13:23:16.031Z,18.76
2023-05-19T13:25:43.879Z,18.73
2023-05-19T13:28:11.273Z,18.85
2023-05-19T13:30:41.446Z,18.79
2023-05-19T13:33:09.071Z,18.66
2023-05-19T13:35:37.954Z,18.59
2023-05-19T13:38:08.001Z,18.81
2023-05-19T13:40:36.795Z,18.89
2023-05-19T13:43:05.142Z,18.67
2023-05-19T13:45:33.112Z,18.42
2023-05-19T13:48:00.743Z,18.43
2023-05-19T13:50:28.526Z,18.44
2023-05-19T13:52:55.938Z,18.39
2023-05-19T13:55:23.716Z,18.40
2023-05-19T13:57:51.047Z,18.23
2023-05-19T14:00:19.537Z,18.22
2023-05-19T14:02:47.347Z,18.21
2023-05-19T14:05:15.059Z,18.04
2023-05-19T14:07:42.749Z,18.00
2023-05-19T14:10:10.773Z,17.87
2023-05-19T14:12:55.125Z,18.18
2023-05-19T14:15:27.084Z,18.22
2023-05-19T14:17:54.568Z,18.13
2023-05-19T14:20:22.305Z,18.07
2023-05-19T14:22:49.585Z,18.03
2023-05-19T14:25:17.259Z,17.77
2023-05-19T14:27:44.569Z,17.77
2023-05-19T14:30:12.817Z,17.54
2023-05-19T14:32:40.205Z,17.46
2023-05-19T14:35:08.289Z,17.25
2023-05-19T14:37:35.712Z,17.31
2023-05-19T14:40:04.656Z,17.21
2023-05-19T14:42:32.012Z,17.21
2023-05-19T14:44:59.592Z,17.27
2023-05-19T14:47:27.443Z,17.29
2023-05-19T14:49:55.317Z,17.39
2023-05-19T14:52:23.117Z,17.49
2023-05-19T14:54:50.785Z,17.38
2023-05-19T14:57:18.051Z,17.20
2023-05-19T14:59:45.596Z,17.25
2023-05-19T15:02:12.965Z,17.23
2023-05-19T15:04:40.660Z,17.15
2023-05-19T15:07:10.728Z,16.95
2023-05-19T15:09:39.672Z,16.86
2023-05-19T15:12:06.976Z,16.33
2023-05-19T15:14:34.545Z,16.66
2023-05-19T15:17:01.945Z,16.70
2023-05-19T15:19:29.536Z,16.48
2023-05-19T15:21:56.951Z,16.53
2023-05-19T15:24:24.573Z,16.44
2023-05-19T15:26:52.523Z,16.43
2023-05-19T15:29:20.176Z,16.58
2023-05-19T15:31:51.896Z,16.69
2023-05-19T15:34:20.952Z,16.72
2023-05-19T15:36:48.249Z,16.64
2023-05-19T15:39:16.004Z,16.74
2023-05-19T15:41:43.377Z,16.59
2023-05-19T15:44:11.083Z,16.47
2023-05-19T15:46:38.448Z,16.45
2023-05-19T15:49:06.153Z,16.51
2023-05-19T15:51:33.684Z,16.36
2023-05-19T15:54:01.198Z,16.41
2023-05-19T15:56:29.085Z,16.21
2023-05-19T15:58:56.738Z,16.13
2023-05-19T16:01:24.160Z,16.07
2023-05-19T16:03:52.024Z,16.07
2023-05-19T16:06:19.468Z,15.90
2023-05-19T16:08:47.128Z,15.89
2023-05-19T16:11:14.698Z,15.84
2023-05-19T16:13:42.300Z,15.95
2023-05-19T16:16:09.790Z,15.86
2023-05-19T16:18:37.560Z,15.65
2023-05-19T16:21:05.281Z,15.76
2023-05-19T16:23:32.951Z,15.74
2023-05-19T16:26:00.389Z,15.84
2023-05-19T16:28:28.785Z,15.87
2023-05-19T16:31:00.255Z,15.82
2023-05-19T16:33:28.583Z,15.80
2023-05-19T16:35:56.396Z,15.82
2023-05-19T16:38:23.996Z,15.84
2023-05-19T16:40:51.275Z,15.87
2023-05-19T16:43:18.914Z,15.79
2023-05-19T16:45:46.343Z,15.71
2023-05-19T16:48:14.053Z,15.65
2023-05-19T16:50:41.452Z,15.64
2023-05-19T16:53:09.046Z,15.51
2023-05-19T16:55:36.362Z,15.33
2023-05-19T16:58:04.048Z,15.21
2023-05-19T17:00:31.510Z,15.18
2023-05-19T17:02:59.426Z,15.14
2023-05-19T17:05:27.862Z,15.20
2023-05-19T17:07:55.534Z,15.07
2023-05-19T17:10:22.822Z,15.16
2023-05-19T17:12:50.440Z,15.10
2023-05-19T17:15:17.846Z,15.07
2023-05-19T17:17:45.482Z,15.00
2023-05-19T17:20:13.604Z,15.03
2023-05-19T17:22:41.266Z,14.98
2023-05-19T17:25:09.474Z,14.92
2023-05-19T17:27:37.104Z,15.00
2023-05-19T17:30:05.075Z,14.98
2023-05-19T17:32:36.010Z,14.94
2023-05-19T17:35:05.469Z,14.86
2023-05-19T17:37:33.588Z,14.82
2023-05-19T17:40:01.108Z,14.84
2023-05-19T17:42:29.328Z,14.85
2023-05-19T17:44:56.611Z,14.86
2023-05-19T17:47:24.237Z,14.79
2023-05-19T17:49:54.457Z,14.64
2023-05-19T17:52:22.547Z,14.67
2023-05-19T17:54:50.854Z,14.64
2023-05-19T17:57:18.804Z,14.57
2023-05-19T17:59:46.647Z,14.42
2023-05-19T18:02:15.771Z,14.37
2023-05-19T18:04:43.900Z,14.35
2023-05-19T18:07:12.230Z,14.29
2023-05-19T18:09:45.691Z,14.27
2023-05-19T18:12:13.650Z,14.27
2023-05-19T18:14:40.993Z,14.31
2023-05-19T18:17:08.648Z,14.34
2023-05-19T18:19:36.067Z,14.28
2023-05-19T18:22:03.788Z,14.37
2023-05-19T18:24:31.284Z,14.30
2023-05-19T18:26:59.075Z,14.24
2023-05-19T18:29:26.420Z,14.25
2023-05-19T18:31:54.108Z,14.32
2023-05-19T18:34:21.527Z,14.28
2023-05-19T18:36:49.350Z,14.28
2023-05-19T18:39:16.768Z,14.29
2023-05-19T18:41:44.444Z,14.29
2023-05-19T18:44:12.155Z,14.23
2023-05-19T18:46:40.016Z,14.13
2023-05-19T18:49:07.436Z,14.11
2023-05-19T18:51:36.172Z,14.04
2023-05-19T18:54:03.579Z,14.01
2023-05-19T18:56:33.396Z,14.00
2023-05-19T18:59:00.648Z,13.96
2023-05-19T19:01:28.500Z,13.99
2023-05-19T19:03:56.010Z,13.95
2023-05-19T19:06:23.604Z,13.92
2023-05-19T19:08:51.617Z,13.99
2023-05-19T19:11:19.271Z,13.96
2023-05-19T19:13:47.105Z,13.94
2023-05-19T19:16:15.857Z,13.83
2023-05-19T19:18:43.338Z,13.80
2023-05-19T19:21:11.131Z,13.70
2023-05-19T19:23:38.666Z,13.80
2023-05-19T19:26:08.615Z,13.89
2023-05-19T19:28:35.928Z,13.76
2023-05-19T19:31:03.739Z,13.86
2023-05-19T19:33:31.068Z,13.83
2023-05-19T19:35:58.665Z,13.79
2023-05-19T19:38:25.973Z,13.79
2023-05-19T19:40:53.723Z,13.73
2023-05-19T19:43:20.968Z,13.70
2023-05-19T19:45:48.573Z,13.70
2023-05-19T19:48:15.998Z,13.71
2023-05-19T19:50:43.522Z,13.57
2023-05-19T19:53:11.053Z,13.53
2023-05-19T19:55:38.612Z,13.48
2023-05-19T19:58:06.007Z,13.29
2023-05-19T20:00:33.805Z,13.44
2023-05-19T20:03:05.584Z,13.29
2023-05-19T20:05:33.667Z,13.33
2023-05-19T20:08:01.272Z,13.42
2023-05-19T20:10:28.929Z,13.46
2023-05-19T20:12:56.425Z,13.44
2023-05-19T20:15:23.970Z,13.42
2023-05-19T20:17:51.335Z,13.46
2023-05-19T20:20:19.038Z,13.43
2023-05-19T20:22:46.421Z,13.48
2023-05-19T20:25:14.122Z,13.51
2023-05-19T20:27:41.414Z,13.48
2023-05-19T20:30:09.621Z,13.44
2023-05-19T20:32:37.159Z,13.38
2023-05-19T20:35:06.924Z,13.42
2023-05-19T20:37:34.423Z,13.48
2023-05-19T20:40:02.047Z,13.42
2023-05-19T20:42:29.376Z,13.43
2023-05-19T20:44:57.463Z,13.46
2023-05-19T20:47:24.968Z,13.53
2023-05-19T20:49:52.592Z,13.44
2023-05-19T20:52:19.905Z,13.37
2023-05-19T20:54:47.503Z,13.35
2023-05-19T20:57:14.864Z,13.43
2023-05-19T20:59:42.784Z,13.40
2023-05-19T21:02:11.698Z,13.42
2023-05-19T21:04:39.638Z,13.26
2023-05-19T21:07:07.021Z,13.35
2023-05-19T21:09:34.619Z,13.35
2023-05-19T21:12:02.358Z,13.27
2023-05-19T21:14:29.991Z,13.34
2023-05-19T21:16:57.301Z,13.32
2023-05-19T21:19:25.104Z,13.26
2023-05-19T21:21:52.537Z,13.26
2023-05-19T21:24:20.122Z,13.42
2023-05-19T21:26:49.297Z,13.25
2023-05-19T21:29:17.026Z,13.29
2023-05-19T21:31:44.306Z,13.40
2023-05-19T21:34:11.926Z,13.46
2023-05-19T21:36:39.282Z,13.47
2023-05-19T21:39:06.829Z,13.48
2023-05-19T21:41:34.298Z,13.41
2023-05-19T21:44:02.027Z,13.42
2023-05-19T21:46:29.574Z,13.45
2023-05-19T21:48:57.209Z,13.36
2023-05-19T21:51:24.525Z,13.33
2023-05-19T21:53:52.080Z,13.24
2023-05-19T21:56:19.428Z,13.12
2023-05-19T21:58:46.972Z,13.15
2023-05-19T22:01:14.759Z,13.02
2023-05-19T22:03:42.430Z,13.15
2023-05-19T22:06:09.732Z,13.21
2023-05-19T22:08:37.297Z,13.31
2023-05-19T22:11:04.951Z,13.26
2023-05-19T22:13:33.970Z,13.34
2023-05-19T22:16:01.492Z,13.28
2023-05-19T22:18:29.354Z,13.32
2023-05-19T22:20:56.668Z,13.34
2023-05-19T22:23:24.671Z,13.38
2023-05-19T22:25:52.287Z,13.33
2023-05-19T22:28:19.959Z,13.33
2023-05-19T22:30:47.272Z,13.32
2023-05-19T22:33:15.115Z,13.31
2023-05-19T22:35:42.668Z,13.29
2023-05-19T22:38:10.805Z,13.26
2023-05-19T22:40:38.896Z,13.30
2023-05-19T22:43:06.569Z,13.32
2023-05-19T22:45:36.630Z,13.30
2023-05-19T22:48:05.117Z,13.16
2023-05-19T22:50:32.538Z,13.32
2023-05-19T22:53:00.311Z,13.27
2023-05-19T22:55:27.628Z,13.31
2023-05-19T22:57:56.296Z,13.31
2023-05-19T23:00:23.775Z,13.23
2023-05-19T23:02:51.525Z,13.24
2023-05-19T23:05:19.189Z,13.27
2023-05-19T23:07:47.222Z,13.23
2023-05-19T23:10:14.768Z,13.24
2023-05-19T23:12:42.557Z,13.16
2023-05-19T23:15:11.143Z,13.21
2023-05-19T23:17:38.797Z,13.17
2023-05-19T23:20:07.425Z,13.18
2023-05-19T23:22:35.024Z,13.18
2023-05-19T23:25:05.897Z,13.18
2023-05-19T23:27:35.712Z,13.02
2023-05-19T23:30:04.235Z,13.04
2023-05-19T23:32:32.349Z,12.83
2023-05-19T23:35:11.014Z,13.02
2023-05-19T23:37:39.111Z,13.14
2023-05-19T23:40:07.688Z,13.08
2023-05-19T23:42:41.527Z,13.14
2023-05-19T23:45:09.333Z,13.13
2023-05-19T23:47:36.995Z,13.17
2023-05-19T23:50:04.646Z,13.26
2023-05-19T23:52:32.892Z,13.22
2023-05-19T23:55:00.405Z,13.20
2023-05-19T23:57:27.954Z,13.22
2023-05-19T23:59:55.208Z,13.08
